Syros Wind — SVA7559 — position and weather

sailwx.info

Track history (hours):
 
Tides and Currents Weather Stations Pressure Air Temp Water Temp Dewpoint Dewpoint Depression Visibility Wind Speed Wind Dir Waves Ship Positions

Syros Wind

Last reported at 2018-Jun-23 15:59 UTC. Time now 2018-Jun-24 01:21 UTC.
Position N 37°39' E 023°52'.

Length 87 m; draft 3.8 m.

Type: Cargo ship. MMSI: 241475000.

Date/timePositionNaut miles runAvg speedWind from/ knotsBaromVisibWave heightAir tempDewpointWater temp
2018-Jun-23 15:59N 37°39' E 023°52'510.2
2018-Jun-23 15:30N 37°39' E 023°46'5 9.2
2018-Jun-23 15:00N 37°42' E 023°41'5 9.7
2018-Jun-23 14:31N 37°46' E 023°38'5 9.8
2018-Jun-23 14:01N 37°51' E 023°37'510.5
2018-Jun-23 13:30N 37°56' E 023°36'5 8.9
2018-Jun-23 13:00N 38°00' E 023°33'3 5.2
2018-Jun-23 12:28N 38°03' E 023°32'0 0.0
2018-Jun-23 11:58N 38°03' E 023°32'0 0.0
2018-Jun-23 11:28N 38°03' E 023°32'0 0.0
2018-Jun-23 10:58N 38°03' E 023°32'0 0.0
2018-Jun-23 10:30N 38°03' E 023°32'0 0.0
2018-Jun-23 10:00N 38°03' E 023°32'0 0.0
2018-Jun-23 09:30N 38°03' E 023°32'0 0.0
2018-Jun-23 08:56N 38°03' E 023°32'0 0.0
2018-Jun-23 08:20N 38°03' E 023°32'0 0.0
2018-Jun-23 07:59N 38°03' E 023°32'0 0.0
2018-Jun-23 07:28N 38°03' E 023°32'0 0.0
2018-Jun-23 06:58N 38°03' E 023°32'0 0.0
2018-Jun-23 06:28N 38°03' E 023°32'0 0.0
2018-Jun-23 05:58N 38°03' E 023°32'0 0.0
2018-Jun-23 05:30N 38°03' E 023°32'0 0.0
2018-Jun-23 05:00N 38°03' E 023°32'0 0.0
2018-Jun-23 04:30N 38°03' E 023°32'0 0.0
2018-Jun-23 03:59N 38°03' E 023°32'0 0.0
2018-Jun-23 03:29N 38°03' E 023°32'0 0.0
2018-Jun-23 02:50N 38°03' E 023°32'0 0.0
2018-Jun-23 02:29N 38°03' E 023°32'0 0.0
2018-Jun-23 01:55N 38°03' E 023°32'0 0.0
2018-Jun-23 01:28N 38°03' E 023°32'0 0.0
2018-Jun-23 00:58N 38°03' E 023°32'0 0.0
2018-Jun-23 00:30N 38°03' E 023°32'0 0.0
2018-Jun-23 00:00N 38°03' E 023°32'0 0.0
2018-Jun-22 23:30N 38°03' E 023°32'0 0.0
2018-Jun-22 22:58N 38°03' E 023°32'0 0.0
2018-Jun-22 22:28N 38°03' E 023°32'0 0.0
2018-Jun-22 22:00N 38°03' E 023°32'0 0.0
2018-Jun-22 21:30N 38°03' E 023°32'0 0.0
2018-Jun-22 21:00N 38°03' E 023°32'0 0.0
2018-Jun-22 20:29N 38°03' E 023°32'0 0.0
2018-Jun-22 19:59N 38°03' E 023°32'0 0.0
2018-Jun-22 19:30N 38°03' E 023°32'0 0.0
2018-Jun-22 18:59N 38°03' E 023°32'0 0.0
2018-Jun-22 18:29N 38°03' E 023°32'0 0.0
2018-Jun-22 17:58N 38°03' E 023°32'0 0.0
2018-Jun-22 17:28N 38°03' E 023°32'0 0.0
2018-Jun-22 16:58N 38°03' E 023°32'0 0.0
2018-Jun-22 16:30N 38°03' E 023°32'0 0.0
2018-Jun-22 16:00N 38°03' E 023°32'0 0.0
2018-Jun-22 15:30N 38°03' E 023°32'0 0.0
2018-Jun-22 15:00N 38°03' E 023°32'0 0.0
2018-Jun-22 14:30N 38°03' E 023°32'0 0.0
2018-Jun-22 14:00N 38°03' E 023°32'0 0.0
2018-Jun-22 13:29N 38°03' E 023°32'0 0.0
2018-Jun-22 12:59N 38°03' E 023°32'0 0.0
2018-Jun-22 12:29N 38°03' E 023°32'0 0.0
2018-Jun-22 11:21N 38°03' E 023°32'0 0.0
2018-Jun-22 10:56N 38°03' E 023°32'0 0.0
2018-Jun-22 10:24N 38°03' E 023°32'0 0.0
2018-Jun-22 10:00N 38°03' E 023°32'0 0.0
2018-Jun-22 09:30N 38°03' E 023°32'0 0.2
2018-Jun-22 09:00N 38°02' E 023°32'3 6.9
2018-Jun-22 08:30N 37°59' E 023°33'4 7.8
2018-Jun-22 08:00N 37°56' E 023°35'5 9.7
2018-Jun-22 07:30N 37°52' E 023°38'5 9.8
2018-Jun-22 07:00N 37°47' E 023°41'5 9.8
2018-Jun-22 06:30N 37°43' E 023°44'6 0.2
2018-Jun-20 12:55N 37°37' E 023°47'410.3
2018-Jun-20 12:30N 37°40' E 023°43'510.8
2018-Jun-20 12:00N 37°45' E 023°40'510.7
2018-Jun-20 11:30N 37°49' E 023°36'510.9
2018-Jun-20 11:00N 37°50' E 023°29'511.0
2018-Jun-20 10:30N 37°51' E 023°22'510.9
2018-Jun-20 10:00N 37°52' E 023°15'510.9
2018-Jun-20 09:30N 37°53' E 023°08'611.1
2018-Jun-20 09:00N 37°54' E 023°02'4 6.4
2018-Jun-20 08:27N 37°57' E 022°58'1 2.4
2018-Jun-20 08:00N 37°57' E 022°57'1 1.3
2018-Jun-20 07:30N 37°58' E 022°56'4 8.4
2018-Jun-20 07:00N 37°59' E 022°51'610.9
2018-Jun-20 06:28N 38°02' E 022°45'  
2018-Jun-16 11:16N 38°03' E 022°44'310.0
2018-Jun-16 10:58N 38°01' E 022°48'5 9.7
2018-Jun-16 10:30N 37°59' E 022°53'4 8.9
2018-Jun-16 10:00N 37°57' E 022°58'3 4.5
2018-Jun-16 09:24N 37°55' E 023°00'2 4.0
2018-Jun-16 09:00N 37°54' E 023°02'5 9.3
2018-Jun-16 08:30N 37°53' E 023°07'4 8.6
2018-Jun-16 08:00N 37°50' E 023°11'5 9.2
2018-Jun-16 07:30N 37°46' E 023°14'5 9.4
2018-Jun-16 07:00N 37°42' E 023°17'5 9.1
2018-Jun-16 06:30N 37°39' E 023°22'5 9.7
2018-Jun-16 06:00N 37°38' E 023°28'5 9.5
2018-Jun-16 05:27N 37°35' E 023°33'4 9.5
2018-Jun-16 05:00N 37°32' E 023°37'52 1.3
2018-Jun-14 11:43N 36°48' E 024°11'210.2
2018-Jun-14 11:29N 36°50' E 024°10'58 9.9
2018-Jun-14 05:41N 37°43' E 023°41'210.7
2018-Jun-14 05:30N 37°45' E 023°40'510.4
2018-Jun-14 05:00N 37°49' E 023°37'510.3
2018-Jun-14 04:30N 37°54' E 023°35'  
Track history (hours):
 
Tides and Currents Weather Stations Pressure Air Temp Water Temp Dewpoint Dewpoint Depression Visibility Wind Speed Wind Dir Waves Ship Positions

Syros Wind

Last reported at 2018-Jun-23 15:59 UTC. Time now 2018-Jun-24 01:21 UTC.
Position N 37°39' E 023°52'.

Length 87 m; draft 3.8 m.

Type: Cargo ship. MMSI: 241475000.

Date/timePositionNaut miles runAvg speedWind from/ knotsBaromVisibWave heightAir tempDewpointWater temp
2018-Jun-23 15:59N 37°39' E 023°52'510.2
2018-Jun-23 15:30N 37°39' E 023°46'5 9.2
2018-Jun-23 15:00N 37°42' E 023°41'5 9.7
2018-Jun-23 14:31N 37°46' E 023°38'5 9.8
2018-Jun-23 14:01N 37°51' E 023°37'510.5
2018-Jun-23 13:30N 37°56' E 023°36'5 8.9
2018-Jun-23 13:00N 38°00' E 023°33'3 5.2
2018-Jun-23 12:28N 38°03' E 023°32'0 0.0
2018-Jun-23 11:58N 38°03' E 023°32'0 0.0
2018-Jun-23 11:28N 38°03' E 023°32'0 0.0
2018-Jun-23 10:58N 38°03' E 023°32'0 0.0
2018-Jun-23 10:30N 38°03' E 023°32'0 0.0
2018-Jun-23 10:00N 38°03' E 023°32'0 0.0
2018-Jun-23 09:30N 38°03' E 023°32'0 0.0
2018-Jun-23 08:56N 38°03' E 023°32'0 0.0
2018-Jun-23 08:20N 38°03' E 023°32'0 0.0
2018-Jun-23 07:59N 38°03' E 023°32'0 0.0
2018-Jun-23 07:28N 38°03' E 023°32'0 0.0
2018-Jun-23 06:58N 38°03' E 023°32'0 0.0
2018-Jun-23 06:28N 38°03' E 023°32'0 0.0
2018-Jun-23 05:58N 38°03' E 023°32'0 0.0
2018-Jun-23 05:30N 38°03' E 023°32'0 0.0
2018-Jun-23 05:00N 38°03' E 023°32'0 0.0
2018-Jun-23 04:30N 38°03' E 023°32'0 0.0
2018-Jun-23 03:59N 38°03' E 023°32'0 0.0
2018-Jun-23 03:29N 38°03' E 023°32'0 0.0
2018-Jun-23 02:50N 38°03' E 023°32'0 0.0
2018-Jun-23 02:29N 38°03' E 023°32'0 0.0
2018-Jun-23 01:55N 38°03' E 023°32'0 0.0
2018-Jun-23 01:28N 38°03' E 023°32'0 0.0
2018-Jun-23 00:58N 38°03' E 023°32'0 0.0
2018-Jun-23 00:30N 38°03' E 023°32'0 0.0
2018-Jun-23 00:00N 38°03' E 023°32'0 0.0
2018-Jun-22 23:30N 38°03' E 023°32'0 0.0
2018-Jun-22 22:58N 38°03' E 023°32'0 0.0
2018-Jun-22 22:28N 38°03' E 023°32'0 0.0
2018-Jun-22 22:00N 38°03' E 023°32'0 0.0
2018-Jun-22 21:30N 38°03' E 023°32'0 0.0
2018-Jun-22 21:00N 38°03' E 023°32'0 0.0
2018-Jun-22 20:29N 38°03' E 023°32'0 0.0
2018-Jun-22 19:59N 38°03' E 023°32'0 0.0
2018-Jun-22 19:30N 38°03' E 023°32'0 0.0
2018-Jun-22 18:59N 38°03' E 023°32'0 0.0
2018-Jun-22 18:29N 38°03' E 023°32'0 0.0
2018-Jun-22 17:58N 38°03' E 023°32'0 0.0
2018-Jun-22 17:28N 38°03' E 023°32'0 0.0
2018-Jun-22 16:58N 38°03' E 023°32'0 0.0
2018-Jun-22 16:30N 38°03' E 023°32'0 0.0
2018-Jun-22 16:00N 38°03' E 023°32'0 0.0
2018-Jun-22 15:30N 38°03' E 023°32'0 0.0
2018-Jun-22 15:00N 38°03' E 023°32'0 0.0
2018-Jun-22 14:30N 38°03' E 023°32'0 0.0
2018-Jun-22 14:00N 38°03' E 023°32'0 0.0
2018-Jun-22 13:29N 38°03' E 023°32'0 0.0
2018-Jun-22 12:59N 38°03' E 023°32'0 0.0
2018-Jun-22 12:29N 38°03' E 023°32'0 0.0
2018-Jun-22 11:21N 38°03' E 023°32'0 0.0
2018-Jun-22 10:56N 38°03' E 023°32'0 0.0
2018-Jun-22 10:24N 38°03' E 023°32'0 0.0
2018-Jun-22 10:00N 38°03' E 023°32'0 0.0
2018-Jun-22 09:30N 38°03' E 023°32'0 0.2
2018-Jun-22 09:00N 38°02' E 023°32'3 6.9
2018-Jun-22 08:30N 37°59' E 023°33'4 7.8
2018-Jun-22 08:00N 37°56' E 023°35'5 9.7
2018-Jun-22 07:30N 37°52' E 023°38'5 9.8
2018-Jun-22 07:00N 37°47' E 023°41'5 9.8
2018-Jun-22 06:30N 37°43' E 023°44'6 0.2
2018-Jun-20 12:55N 37°37' E 023°47'410.3
2018-Jun-20 12:30N 37°40' E 023°43'510.8
2018-Jun-20 12:00N 37°45' E 023°40'510.7
2018-Jun-20 11:30N 37°49' E 023°36'510.9
2018-Jun-20 11:00N 37°50' E 023°29'511.0
2018-Jun-20 10:30N 37°51' E 023°22'510.9
2018-Jun-20 10:00N 37°52' E 023°15'510.9
2018-Jun-20 09:30N 37°53' E 023°08'611.1
2018-Jun-20 09:00N 37°54' E 023°02'4 6.4
2018-Jun-20 08:27N 37°57' E 022°58'1 2.4
2018-Jun-20 08:00N 37°57' E 022°57'1 1.3
2018-Jun-20 07:30N 37°58' E 022°56'4 8.4
2018-Jun-20 07:00N 37°59' E 022°51'610.9
2018-Jun-20 06:28N 38°02' E 022°45'  
2018-Jun-16 11:16N 38°03' E 022°44'310.0
2018-Jun-16 10:58N 38°01' E 022°48'5 9.7
2018-Jun-16 10:30N 37°59' E 022°53'4 8.9
2018-Jun-16 10:00N 37°57' E 022°58'3 4.5
2018-Jun-16 09:24N 37°55' E 023°00'2 4.0
2018-Jun-16 09:00N 37°54' E 023°02'5 9.3
2018-Jun-16 08:30N 37°53' E 023°07'4 8.6
2018-Jun-16 08:00N 37°50' E 023°11'5 9.2
2018-Jun-16 07:30N 37°46' E 023°14'5 9.4
2018-Jun-16 07:00N 37°42' E 023°17'5 9.1
2018-Jun-16 06:30N 37°39' E 023°22'5 9.7
2018-Jun-16 06:00N 37°38' E 023°28'5 9.5
2018-Jun-16 05:27N 37°35' E 023°33'4 9.5
2018-Jun-16 05:00N 37°32' E 023°37'52 1.3
2018-Jun-14 11:43N 36°48' E 024°11'210.2
2018-Jun-14 11:29N 36°50' E 024°10'58 9.9
2018-Jun-14 05:41N 37°43' E 023°41'210.7
2018-Jun-14 05:30N 37°45' E 023°40'510.4
2018-Jun-14 05:00N 37°49' E 023°37'510.3
2018-Jun-14 04:30N 37°54' E 023°35'  

Dump ship's entire track history